createdAt,value
2019-04-23T00:01:59.099Z,52.40
2019-04-23T00:03:45.531Z,52.30
2019-04-23T00:05:59.463Z,52.30
2019-04-23T00:08:09.559Z,52.30
2019-04-23T00:12:24.328Z,52.30
2019-04-23T00:14:30.323Z,52.30
2019-04-23T00:16:30.258Z,52.30
2019-04-23T00:20:42.899Z,52.40
2019-04-23T00:23:11.406Z,52.40
2019-04-23T00:25:43.631Z,52.30
2019-04-23T00:29:53.042Z,52.30
2019-04-23T00:31:51.254Z,52.30
2019-04-23T00:33:59.053Z,52.30
2019-04-23T00:36:02.637Z,52.20
2019-04-23T00:38:18.378Z,52.20
2019-04-23T00:40:19.065Z,52.20
2019-04-23T00:42:29.647Z,52.10
2019-04-23T00:44:40.058Z,52.10
2019-04-23T00:48:52.545Z,52.20
2019-04-23T00:53:00.336Z,52.10
2019-04-23T00:55:10.713Z,52.10
2019-04-23T00:57:23.078Z,52.10
2019-04-23T00:59:20.670Z,52.10
2019-04-23T01:01:31.938Z,52.00
2019-04-23T01:03:25.610Z,52.10
2019-04-23T01:07:46.131Z,52.10
2019-04-23T01:10:03.113Z,52.00
2019-04-23T01:12:09.323Z,52.00
2019-04-23T01:14:14.850Z,52.60
2019-04-23T01:16:15.358Z,52.10
2019-04-23T01:18:38.164Z,52.10
2019-04-23T01:20:52.967Z,52.00
2019-04-23T01:22:42.163Z,52.00
2019-04-23T01:25:07.730Z,52.00
2019-04-23T01:29:45.722Z,52.20
2019-04-23T01:31:48.639Z,52.00
2019-04-23T01:33:50.311Z,52.00
2019-04-23T01:36:11.092Z,52.00
2019-04-23T01:38:06.250Z,52.10
2019-04-23T01:42:29.047Z,52.00
2019-04-23T01:44:34.071Z,52.60
2019-04-23T01:46:36.006Z,52.20
2019-04-23T01:48:42.059Z,52.00
2019-04-23T01:50:52.114Z,52.00
2019-04-23T01:53:16.706Z,52.00
2019-04-23T01:55:04.427Z,51.90
2019-04-23T01:57:14.993Z,51.90
2019-04-23T01:59:16.695Z,52.00
2019-04-23T02:01:18.993Z,51.90
2019-04-23T02:03:26.917Z,51.80
2019-04-23T02:05:50.079Z,52.00
2019-04-23T02:07:48.581Z,52.00
2019-04-23T02:09:48.385Z,51.90
2019-04-23T02:11:50.676Z,51.90
2019-04-23T02:14:05.115Z,51.90
2019-04-23T02:16:04.333Z,51.90
2019-04-23T02:20:32.594Z,51.90
2019-04-23T02:22:54.306Z,51.90
2019-04-23T02:24:57.464Z,51.90
2019-04-23T02:27:03.200Z,51.90
2019-04-23T02:29:28.627Z,51.90
2019-04-23T02:31:43.716Z,51.90
2019-04-23T02:37:53.719Z,51.80
2019-04-23T02:40:08.659Z,51.80
2019-04-23T02:44:04.904Z,51.80
2019-04-23T02:48:19.903Z,51.80
2019-04-23T02:50:34.694Z,51.80
2019-04-23T02:54:51.002Z,51.80
2019-04-23T03:01:15.144Z,51.90
2019-04-23T03:03:13.675Z,51.80
2019-04-23T03:05:02.461Z,52.00
2019-04-23T03:07:37.221Z,51.90
2019-04-23T03:09:20.949Z,51.90
2019-04-23T03:11:30.636Z,51.90
2019-04-23T03:18:31.603Z,51.90
2019-04-23T03:20:37.378Z,51.90
2019-04-23T03:22:45.936Z,52.00
2019-04-23T03:25:05.313Z,51.90
2019-04-23T03:36:18.230Z,51.90
2019-04-23T03:42:02.915Z,51.80
2019-04-23T03:43:57.228Z,51.90
2019-04-23T03:48:28.610Z,51.60
2019-04-23T03:52:34.321Z,51.50
2019-04-23T04:01:07.421Z,51.00
2019-04-23T04:03:23.135Z,51.00
2019-04-23T04:05:12.538Z,50.90
2019-04-23T04:07:32.682Z,50.80
2019-04-23T04:09:34.405Z,50.70
2019-04-23T04:11:25.800Z,50.70
2019-04-23T04:15:57.202Z,50.50
2019-04-23T04:18:13.996Z,50.50
2019-04-23T04:20:05.158Z,50.30
2019-04-23T04:26:37.342Z,50.10
2019-04-23T04:28:38.889Z,50.50
2019-04-23T04:30:47.612Z,50.00
2019-04-23T04:32:56.591Z,50.00
2019-04-23T04:35:14.717Z,49.90
2019-04-23T04:39:02.954Z,49.80
2019-04-23T04:41:13.921Z,49.70
2019-04-23T04:54:02.632Z,49.50
2019-04-23T04:56:07.286Z,49.50
2019-04-23T04:58:07.247Z,49.50
2019-04-23T05:02:25.727Z,49.90
2019-04-23T05:04:26.731Z,49.40
2019-04-23T05:08:48.028Z,49.40
2019-04-23T05:10:51.942Z,49.30
2019-04-23T05:13:01.458Z,49.40
2019-04-23T05:19:29.368Z,49.30
2019-04-23T05:23:42.814Z,49.30
2019-04-23T05:25:47.877Z,49.20
2019-04-23T05:28:02.695Z,49.30
2019-04-23T05:30:07.815Z,49.20
2019-04-23T05:32:07.565Z,49.20
2019-04-23T05:34:11.180Z,49.30
2019-04-23T05:38:37.089Z,49.30
2019-04-23T05:44:50.684Z,49.20
2019-04-23T05:49:06.206Z,49.30
2019-04-23T05:51:14.260Z,49.40
2019-04-23T05:53:21.616Z,49.40
2019-04-23T05:55:25.079Z,49.50
2019-04-23T05:57:25.412Z,49.50
2019-04-23T05:59:29.725Z,49.50
2019-04-23T06:01:55.728Z,49.40
2019-04-23T06:03:48.941Z,49.30
2019-04-23T06:05:59.756Z,49.30
2019-04-23T06:08:03.562Z,49.40
2019-04-23T06:10:04.826Z,49.40
2019-04-23T06:12:07.632Z,49.40
2019-04-23T06:14:23.679Z,49.40
2019-04-23T06:16:31.451Z,49.30
2019-04-23T06:18:39.002Z,49.10
2019-04-23T06:20:52.278Z,49.20
2019-04-23T06:22:49.575Z,49.10
2019-04-23T06:24:48.841Z,49.10
2019-04-23T06:27:01.682Z,49.10
2019-04-23T06:29:15.478Z,49.10
2019-04-23T06:31:18.192Z,49.10
2019-04-23T06:33:22.843Z,49.20
2019-04-23T06:35:45.095Z,49.30
2019-04-23T06:37:58.697Z,49.20
2019-04-23T06:39:57.079Z,49.40
2019-04-23T06:41:50.042Z,49.50
2019-04-23T06:44:11.561Z,49.60
2019-04-23T06:46:07.205Z,49.70
2019-04-23T06:48:15.527Z,49.70
2019-04-23T06:50:16.534Z,49.50
2019-04-23T06:54:35.846Z,50.60
2019-04-23T06:56:52.989Z,50.50
2019-04-23T06:58:58.952Z,50.40
2019-04-23T07:01:00.722Z,50.10
2019-04-23T07:03:15.690Z,50.20
2019-04-23T07:05:20.595Z,50.30
2019-04-23T07:09:18.598Z,50.10
2019-04-23T07:11:40.211Z,50.10
2019-04-23T07:13:54.588Z,50.10
2019-04-23T07:15:55.183Z,50.20
2019-04-23T07:17:55.475Z,50.10
2019-04-23T07:20:07.114Z,50.10
2019-04-23T07:24:21.737Z,50.50
2019-04-23T07:26:33.270Z,49.60
2019-04-23T07:28:43.542Z,50.00
2019-04-23T07:30:39.966Z,49.70
2019-04-23T07:32:49.598Z,49.50
2019-04-23T07:35:00.966Z,49.60
2019-04-23T07:39:24.571Z,49.40
2019-04-23T07:43:58.900Z,49.00
2019-04-23T07:46:16.834Z,49.20
2019-04-23T07:48:28.838Z,49.30
2019-04-23T07:52:51.524Z,49.30
2019-04-23T07:54:58.767Z,49.00
2019-04-23T07:57:03.035Z,49.10
2019-04-23T07:59:04.193Z,48.90
2019-04-23T08:01:04.899Z,48.90
2019-04-23T08:05:24.073Z,48.60
2019-04-23T08:07:27.146Z,48.20
2019-04-23T08:11:54.509Z,48.40
2019-04-23T08:13:56.998Z,48.20
2019-04-23T08:16:21.751Z,48.10
2019-04-23T08:18:29.187Z,48.00
2019-04-23T08:20:40.668Z,48.60
2019-04-23T08:22:48.049Z,48.40
2019-04-23T08:25:11.005Z,48.30
2019-04-23T08:27:35.359Z,48.30
2019-04-23T08:29:43.920Z,48.30
2019-04-23T08:38:30.786Z,48.10
2019-04-23T08:40:38.179Z,48.10
2019-04-23T08:45:18.728Z,48.20
2019-04-23T08:49:36.468Z,48.00
2019-04-23T08:52:00.587Z,47.90
2019-04-23T08:53:51.668Z,48.00
2019-04-23T08:55:53.675Z,48.00
2019-04-23T08:58:06.189Z,47.90
2019-04-23T09:00:09.290Z,47.80
2019-04-23T09:04:31.203Z,47.80
2019-04-23T09:06:38.395Z,47.80
2019-04-23T09:13:14.142Z,48.00
2019-04-23T09:15:09.657Z,48.00
2019-04-23T09:17:34.123Z,47.80
2019-04-23T09:19:56.008Z,47.90
2019-04-23T09:21:56.448Z,48.30
2019-04-23T09:23:54.066Z,47.70
2019-04-23T09:25:57.761Z,47.60
2019-04-23T09:28:08.121Z,47.60
2019-04-23T09:30:13.275Z,47.50
2019-04-23T09:32:26.662Z,47.30
2019-04-23T09:34:58.662Z,47.30
2019-04-23T09:39:42.254Z,47.20
2019-04-23T09:42:04.838Z,47.10
2019-04-23T09:48:58.114Z,47.00
2019-04-23T09:51:09.707Z,46.80
2019-04-23T09:55:30.021Z,46.60
2019-04-23T09:57:27.673Z,46.40
2019-04-23T09:59:39.432Z,46.50
2019-04-23T10:01:37.489Z,46.50
2019-04-23T10:03:50.821Z,46.50
2019-04-23T10:05:53.453Z,46.40
2019-04-23T10:08:04.136Z,46.40
2019-04-23T10:09:59.654Z,46.40
2019-04-23T10:12:07.211Z,46.40
2019-04-23T10:14:14.469Z,46.30
2019-04-23T10:16:23.362Z,46.20
2019-04-23T10:18:29.104Z,46.10
2019-04-23T10:20:48.639Z,46.10
2019-04-23T10:22:54.746Z,46.10
2019-04-23T10:25:01.299Z,46.00
2019-04-23T10:27:08.386Z,46.00
2019-04-23T10:29:21.145Z,45.90
2019-04-23T10:31:27.031Z,45.90
2019-04-23T10:33:34.407Z,45.90
2019-04-23T10:35:49.214Z,45.80
2019-04-23T10:37:54.060Z,45.80
2019-04-23T10:39:56.694Z,45.80
2019-04-23T10:42:06.003Z,45.70
2019-04-23T10:44:33.551Z,45.60
2019-04-23T10:47:12.173Z,45.50
2019-04-23T10:49:47.701Z,45.60
2019-04-23T10:53:56.260Z,45.20
2019-04-23T10:56:00.650Z,45.10
2019-04-23T10:58:08.360Z,45.00
2019-04-23T11:00:19.483Z,45.10
2019-04-23T11:07:03.207Z,44.70
2019-04-23T11:08:41.246Z,44.70
2019-04-23T11:10:58.918Z,44.80
2019-04-23T11:13:12.115Z,44.60
2019-04-23T11:15:26.423Z,44.60
2019-04-23T11:17:32.994Z,44.70
2019-04-23T11:19:43.983Z,44.60
2019-04-23T11:21:46.509Z,44.50
2019-04-23T11:25:48.555Z,44.40
2019-04-23T11:30:20.380Z,44.10
2019-04-23T11:34:55.185Z,44.00
2019-04-23T11:40:40.354Z,44.00
2019-04-23T11:43:07.671Z,43.80
2019-04-23T11:45:09.294Z,43.80
2019-04-23T11:47:27.271Z,43.80
2019-04-23T11:49:26.338Z,43.60
2019-04-23T11:53:33.881Z,43.50
2019-04-23T11:57:52.466Z,43.50
2019-04-23T11:59:53.558Z,43.30
2019-04-23T12:02:13.339Z,43.40
2019-04-23T12:09:25.631Z,42.90
2019-04-23T12:13:45.565Z,42.80
2019-04-23T12:15:46.341Z,42.90
2019-04-23T12:17:56.000Z,42.60
2019-04-23T12:22:09.450Z,42.60
2019-04-23T12:26:29.862Z,42.70
2019-04-23T12:28:30.602Z,42.60
2019-04-23T12:35:01.198Z,42.60
2019-04-23T12:36:52.697Z,42.40
2019-04-23T12:39:04.378Z,42.40
2019-04-23T12:41:12.850Z,42.40
2019-04-23T12:43:15.597Z,42.20
2019-04-23T12:45:29.164Z,42.30
2019-04-23T12:47:46.432Z,42.30
2019-04-23T12:51:47.161Z,42.20
2019-04-23T12:53:48.378Z,41.90
2019-04-23T12:56:04.999Z,41.90
2019-04-23T12:58:20.167Z,42.10
2019-04-23T13:00:16.963Z,41.90
2019-04-23T13:02:26.065Z,41.70
2019-04-23T13:04:28.696Z,41.60
2019-04-23T13:06:28.191Z,41.80
2019-04-23T13:08:41.518Z,41.60
2019-04-23T13:10:41.827Z,41.60
2019-04-23T13:17:14.200Z,41.80
2019-04-23T13:19:26.318Z,41.70
2019-04-23T13:21:40.210Z,41.20
2019-04-23T13:25:39.964Z,41.30
2019-04-23T13:27:54.254Z,41.40
2019-04-23T13:29:58.186Z,41.50
2019-04-23T13:31:58.746Z,41.60
2019-04-23T13:34:11.040Z,41.30
2019-04-23T13:36:29.016Z,41.10
2019-04-23T13:38:25.008Z,41.30
2019-04-23T13:40:39.344Z,41.30
2019-04-23T13:42:45.102Z,41.20
2019-04-23T13:44:49.995Z,41.40
2019-04-23T13:46:49.829Z,41.00
2019-04-23T13:48:56.216Z,41.30
2019-04-23T13:51:08.881Z,41.40
2019-04-23T13:53:20.221Z,41.30
2019-04-23T13:55:09.238Z,41.30
2019-04-23T13:59:41.675Z,41.20
2019-04-23T14:01:37.615Z,41.30
2019-04-23T14:10:29.819Z,41.40
2019-04-23T14:12:34.829Z,41.20
2019-04-23T14:14:50.585Z,41.30
2019-04-23T14:16:48.736Z,41.30
2019-04-23T14:20:59.048Z,41.30
2019-04-23T14:27:19.723Z,41.20
2019-04-23T14:29:22.974Z,41.30
2019-04-23T14:31:23.276Z,41.30
2019-04-23T14:38:02.435Z,41.30
2019-04-23T14:40:03.686Z,41.50
2019-04-23T14:44:12.856Z,41.70
2019-04-23T14:48:29.897Z,41.70
2019-04-23T14:50:39.843Z,41.90
2019-04-23T14:52:57.022Z,41.90
2019-04-23T14:55:38.019Z,41.60
2019-04-23T14:57:14.412Z,41.60
2019-04-23T14:59:06.781Z,41.70
2019-04-23T15:01:33.587Z,41.60
2019-04-23T15:03:32.984Z,41.70
2019-04-23T15:05:40.923Z,42.40
2019-04-23T15:07:46.547Z,41.60
2019-04-23T15:09:54.949Z,41.60
2019-04-23T15:12:09.982Z,41.80
2019-04-23T15:14:10.211Z,41.70
2019-04-23T15:16:20.975Z,41.80
2019-04-23T15:18:52.550Z,41.20
2019-04-23T15:21:10.201Z,41.60
2019-04-23T15:25:19.486Z,41.60
2019-04-23T15:27:58.742Z,41.60
2019-04-23T15:29:19.618Z,41.60
2019-04-23T15:31:39.938Z,41.80
2019-04-23T15:33:56.450Z,41.70
2019-04-23T15:36:14.209Z,41.60
2019-04-23T15:38:28.666Z,41.60
2019-04-23T15:40:18.315Z,41.70
2019-04-23T15:42:16.726Z,41.90
2019-04-23T15:44:31.793Z,41.80
2019-04-23T15:46:32.699Z,41.80
2019-04-23T15:48:50.586Z,41.80
2019-04-23T15:50:46.098Z,41.70
2019-04-23T15:55:01.522Z,41.80
2019-04-23T15:56:59.498Z,41.70
2019-04-23T16:01:29.277Z,41.80
2019-04-23T16:02:58.531Z,41.90
2019-04-23T16:05:03.823Z,41.80
2019-04-23T16:07:51.864Z,41.70
2019-04-23T16:10:29.592Z,41.70
2019-04-23T16:12:58.286Z,41.90
2019-04-23T16:15:21.321Z,41.70
2019-04-23T16:17:41.271Z,41.90
2019-04-23T16:22:18.758Z,41.80
2019-04-23T16:24:24.769Z,41.90
2019-04-23T16:26:47.372Z,41.90
2019-04-23T16:31:03.179Z,42.00
2019-04-23T16:33:17.195Z,42.10
2019-04-23T16:35:37.514Z,41.40
2019-04-23T16:37:39.636Z,42.10
2019-04-23T16:39:58.100Z,42.20
2019-04-23T16:42:06.013Z,42.20
2019-04-23T16:46:13.090Z,42.30
2019-04-23T16:48:35.068Z,42.30
2019-04-23T16:50:57.861Z,42.30
2019-04-23T16:53:05.027Z,42.20
2019-04-23T16:55:07.062Z,42.10
2019-04-23T16:59:24.496Z,42.00
2019-04-23T17:01:20.927Z,42.00
2019-04-23T17:03:31.900Z,42.00
2019-04-23T17:07:45.710Z,41.70
2019-04-23T17:10:00.593Z,41.90
2019-04-23T17:14:08.075Z,42.30
2019-04-23T17:16:15.217Z,42.00
2019-04-23T17:18:25.926Z,42.10
2019-04-23T17:20:30.946Z,42.00
2019-04-23T17:22:34.870Z,42.10
2019-04-23T17:24:40.478Z,42.20
2019-04-23T17:26:45.974Z,42.20
2019-04-23T17:29:02.703Z,42.20
2019-04-23T17:31:26.292Z,42.20
2019-04-23T17:33:23.952Z,42.30
2019-04-23T17:35:35.911Z,42.10
2019-04-23T17:37:40.251Z,42.30
2019-04-23T17:40:05.449Z,42.30
2019-04-23T17:44:38.765Z,42.40
2019-04-23T17:46:39.149Z,42.40
2019-04-23T17:48:43.872Z,42.40
2019-04-23T17:50:56.928Z,42.40
2019-04-23T17:59:28.099Z,42.70
2019-04-23T18:01:24.422Z,42.70
2019-04-23T18:03:41.610Z,43.00
2019-04-23T18:05:40.044Z,43.10
2019-04-23T18:10:15.044Z,43.30
2019-04-23T18:12:16.208Z,43.50
2019-04-23T18:14:08.277Z,43.40
2019-04-23T18:18:38.639Z,43.60
2019-04-23T18:21:04.732Z,43.70
2019-04-23T18:27:54.414Z,44.00
2019-04-23T18:30:08.016Z,44.00
2019-04-23T18:32:35.978Z,43.90
2019-04-23T18:35:11.854Z,43.90
2019-04-23T18:36:59.362Z,44.10
2019-04-23T18:39:15.201Z,44.20
2019-04-23T18:41:31.410Z,43.60
2019-04-23T18:43:51.165Z,44.00
2019-04-23T18:46:09.069Z,44.00
2019-04-23T18:48:45.552Z,43.90
2019-04-23T18:51:01.139Z,43.80
2019-04-23T18:53:40.982Z,44.40
2019-04-23T18:56:05.514Z,44.60
2019-04-23T18:57:48.550Z,44.60
2019-04-23T18:59:50.914Z,44.60
2019-04-23T19:02:24.117Z,44.60
2019-04-23T19:04:45.263Z,44.70
2019-04-23T19:06:34.376Z,44.80
2019-04-23T19:11:27.272Z,44.80
2019-04-23T19:17:50.523Z,44.90
2019-04-23T19:19:53.158Z,44.90
2019-04-23T19:22:12.358Z,45.00
2019-04-23T19:24:06.097Z,45.00
2019-04-23T19:26:02.542Z,45.20
2019-04-23T19:28:41.162Z,45.10
2019-04-23T19:30:38.804Z,45.00
2019-04-23T19:32:33.980Z,45.10
2019-04-23T19:34:39.400Z,45.10
2019-04-23T19:38:57.962Z,45.10
2019-04-23T19:46:03.533Z,45.00
2019-04-23T19:48:10.747Z,45.10
2019-04-23T19:50:41.451Z,45.10
2019-04-23T19:55:08.543Z,45.10
2019-04-23T19:59:31.751Z,45.10
2019-04-23T20:01:41.723Z,45.10
2019-04-23T20:05:57.304Z,45.10
2019-04-23T20:08:16.383Z,45.20
2019-04-23T20:10:15.556Z,45.20
2019-04-23T20:12:28.459Z,45.10
2019-04-23T20:14:26.179Z,45.20
2019-04-23T20:18:46.327Z,45.20
2019-04-23T20:25:37.919Z,45.20
2019-04-23T20:29:35.224Z,45.90
2019-04-23T20:33:00.601Z,45.20
2019-04-23T20:34:19.571Z,45.20
2019-04-23T20:36:07.207Z,45.30
2019-04-23T20:38:25.711Z,45.30
2019-04-23T20:40:16.409Z,45.30
2019-04-23T20:42:22.320Z,45.30
2019-04-23T20:44:43.305Z,45.30
2019-04-23T20:46:44.492Z,45.20
2019-04-23T20:48:48.659Z,45.30
2019-04-23T20:50:48.961Z,45.40
2019-04-23T20:52:51.733Z,45.50
2019-04-23T20:55:05.179Z,45.50
2019-04-23T20:57:40.032Z,45.60
2019-04-23T20:59:41.569Z,45.50
2019-04-23T21:01:55.592Z,45.60
2019-04-23T21:03:55.216Z,45.60
2019-04-23T21:06:05.011Z,45.80
2019-04-23T21:08:28.534Z,45.80
2019-04-23T21:10:48.345Z,45.90
2019-04-23T21:12:43.100Z,45.90
2019-04-23T21:14:48.749Z,45.90
2019-04-23T21:16:35.797Z,46.50
2019-04-23T21:21:13.006Z,45.40
2019-04-23T21:25:14.440Z,45.90
2019-04-23T21:27:21.925Z,46.00
2019-04-23T21:29:27.563Z,45.90
2019-04-23T21:31:32.058Z,45.90
2019-04-23T21:36:15.375Z,45.90
2019-04-23T21:38:12.922Z,45.90
2019-04-23T21:43:09.472Z,46.00
2019-04-23T21:44:59.310Z,45.80
2019-04-23T21:47:01.294Z,45.80
2019-04-23T21:51:38.493Z,45.90
2019-04-23T21:53:26.091Z,45.70
2019-04-23T21:55:38.895Z,45.60
2019-04-23T21:57:53.843Z,45.50
2019-04-23T21:59:52.798Z,45.50
2019-04-23T22:01:57.409Z,45.50
2019-04-23T22:06:17.563Z,45.60
2019-04-23T22:08:17.003Z,45.60
2019-04-23T22:10:18.279Z,45.70
2019-04-23T22:13:00.557Z,45.70
2019-04-23T22:14:40.123Z,45.50
2019-04-23T22:19:09.165Z,45.60
2019-04-23T22:21:01.100Z,45.60
2019-04-23T22:25:04.490Z,45.50
2019-04-23T22:27:11.760Z,45.60
2019-04-23T22:33:53.468Z,45.60
2019-04-23T22:35:57.929Z,45.60
2019-04-23T22:38:09.099Z,45.40
2019-04-23T22:40:04.426Z,45.40
2019-04-23T22:42:22.445Z,45.40
2019-04-23T22:48:57.617Z,45.50
2019-04-23T22:50:56.714Z,45.40
2019-04-23T22:53:04.278Z,45.40
2019-04-23T22:57:07.738Z,45.40
2019-04-23T23:03:35.258Z,45.40
2019-04-23T23:06:04.329Z,45.40
2019-04-23T23:08:03.040Z,45.40
2019-04-23T23:10:06.821Z,45.40
2019-04-23T23:12:34.595Z,45.30
2019-04-23T23:14:43.406Z,45.30
2019-04-23T23:16:21.630Z,45.30
2019-04-23T23:18:23.668Z,45.30
2019-04-23T23:20:36.116Z,45.30
2019-04-23T23:22:51.808Z,45.30
2019-04-23T23:24:56.200Z,45.30
2019-04-23T23:26:57.171Z,45.30
2019-04-23T23:29:15.766Z,45.30
2019-04-23T23:31:16.143Z,45.30
2019-04-23T23:33:21.645Z,45.30
2019-04-23T23:35:34.517Z,45.30
2019-04-23T23:37:28.072Z,45.30
2019-04-23T23:39:53.794Z,45.20
2019-04-23T23:43:59.631Z,45.10
2019-04-23T23:46:13.743Z,45.10
2019-04-23T23:48:06.113Z,45.00
2019-04-23T23:50:17.864Z,45.00
2019-04-23T23:52:21.688Z,44.90
2019-04-23T23:54:18.185Z,44.90
2019-04-23T23:56:30.724Z,44.90
